Aviation Digital Data Service (ADDS)

Output produced by METARs form (1437 UTC 20 April 2014)
found at http://aviationweather.gov/adds/metars/
 
KSYR 201330Z 2014/2112 09004KT P6SM FEW250 
     FM201600 18009KT P6SM SCT250 
     FM210800 16004KT P6SM BKN180